sensor_id;sensor_type;location;lat;lon;timestamp;pressure;altitude;pressure_sealevel;temperature;humidity
37972;BME280;23794;48.234;8.344;2024-02-21T00:01:18;95227.53;;;1.80;89.08
37972;BME280;23794;48.234;8.344;2024-02-21T00:03:44;95227.72;;;1.75;89.57
37972;BME280;23794;48.234;8.344;2024-02-21T00:06:11;95224.34;;;1.78;88.82
37972;BME280;23794;48.234;8.344;2024-02-21T00:08:38;95227.06;;;1.78;88.31
37972;BME280;23794;48.234;8.344;2024-02-21T00:11:05;95227.53;;;1.80;89.19
37972;BME280;23794;48.234;8.344;2024-02-21T00:13:32;95223.22;;;1.88;89.47
37972;BME280;23794;48.234;8.344;2024-02-21T00:16:00;95223.84;;;1.94;88.93
37972;BME280;23794;48.234;8.344;2024-02-21T00:18:28;95222.94;;;1.90;89.65
37972;BME280;23794;48.234;8.344;2024-02-21T00:20:56;95216.38;;;1.99;89.28
37972;BME280;23794;48.234;8.344;2024-02-21T00:23:23;95214.16;;;2.01;89.04
37972;BME280;23794;48.234;8.344;2024-02-21T00:25:49;95216.53;;;2.03;89.08
37972;BME280;23794;48.234;8.344;2024-02-21T00:28:16;95215.41;;;1.95;88.95
37972;BME280;23794;48.234;8.344;2024-02-21T00:30:43;95212.72;;;2.04;88.77
37972;BME280;23794;48.234;8.344;2024-02-21T00:33:10;95216.06;;;2.01;88.60
37972;BME280;23794;48.234;8.344;2024-02-21T00:35:37;95211.59;;;1.96;88.86
37972;BME280;23794;48.234;8.344;2024-02-21T00:38:04;95217.16;;;2.09;88.11
37972;BME280;23794;48.234;8.344;2024-02-21T00:40:31;95214.47;;;2.09;89.41
37972;BME280;23794;48.234;8.344;2024-02-21T00:42:58;95209.22;;;2.12;89.85
37972;BME280;23794;48.234;8.344;2024-02-21T00:45:25;95209.03;;;2.17;90.33
37972;BME280;23794;48.234;8.344;2024-02-21T00:47:52;95210.28;;;2.20;90.24
37972;BME280;23794;48.234;8.344;2024-02-21T00:50:18;95210.63;;;2.19;90.31
37972;BME280;23794;48.234;8.344;2024-02-21T00:52:45;95210.09;;;2.25;90.21
37972;BME280;23794;48.234;8.344;2024-02-21T00:55:12;95206.28;;;2.26;89.95
37972;BME280;23794;48.234;8.344;2024-02-21T00:57:39;95207.06;;;2.36;88.98
37972;BME280;23794;48.234;8.344;2024-02-21T01:00:06;95208.84;;;2.31;89.92
37972;BME280;23794;48.234;8.344;2024-02-21T01:02:33;95202.44;;;2.36;89.59
37972;BME280;23794;48.234;8.344;2024-02-21T01:05:00;95199.59;;;2.32;89.63
37972;BME280;23794;48.234;8.344;2024-02-21T01:07:27;95197.06;;;2.27;89.97
37972;BME280;23794;48.234;8.344;2024-02-21T01:09:53;95188.63;;;2.29;89.97
37972;BME280;23794;48.234;8.344;2024-02-21T01:12:20;95183.34;;;2.32;89.75
37972;BME280;23794;48.234;8.344;2024-02-21T01:14:46;95182.38;;;2.37;89.56
37972;BME280;23794;48.234;8.344;2024-02-21T01:17:13;95177.94;;;2.41;89.48
37972;BME280;23794;48.234;8.344;2024-02-21T01:19:41;95173.63;;;2.40;89.78
37972;BME280;23794;48.234;8.344;2024-02-21T01:22:08;95173.59;;;2.49;89.10
37972;BME280;23794;48.234;8.344;2024-02-21T01:24:35;95179.38;;;2.39;89.43
37972;BME280;23794;48.234;8.344;2024-02-21T01:27:01;95165.81;;;2.47;89.64
37972;BME280;23794;48.234;8.344;2024-02-21T01:29:28;95158.34;;;2.44;88.34
37972;BME280;23794;48.234;8.344;2024-02-21T01:31:54;95150.09;;;2.41;88.66
37972;BME280;23794;48.234;8.344;2024-02-21T01:34:21;95144.03;;;2.44;88.86
37972;BME280;23794;48.234;8.344;2024-02-21T01:36:48;95144.31;;;2.51;88.35
37972;BME280;23794;48.234;8.344;2024-02-21T01:39:15;95142.72;;;2.50;88.59
37972;BME280;23794;48.234;8.344;2024-02-21T01:41:42;95129.88;;;2.47;89.49
37972;BME280;23794;48.234;8.344;2024-02-21T01:44:08;95127.13;;;2.56;89.08
37972;BME280;23794;48.234;8.344;2024-02-21T01:46:35;95125.66;;;2.58;88.75
37972;BME280;23794;48.234;8.344;2024-02-21T01:49:03;95131.41;;;2.57;88.46
37972;BME280;23794;48.234;8.344;2024-02-21T01:51:31;95114.69;;;2.55;88.60
37972;BME280;23794;48.234;8.344;2024-02-21T01:53:58;95109.91;;;2.60;89.26
37972;BME280;23794;48.234;8.344;2024-02-21T01:56:25;95098.47;;;2.55;89.77
37972;BME280;23794;48.234;8.344;2024-02-21T01:58:52;95093.00;;;2.63;88.86
37972;BME280;23794;48.234;8.344;2024-02-21T02:01:18;95087.66;;;2.55;89.51
37972;BME280;23794;48.234;8.344;2024-02-21T02:03:48;95077.03;;;2.71;88.76
37972;BME280;23794;48.234;8.344;2024-02-21T02:06:15;95075.75;;;2.77;89.26
37972;BME280;23794;48.234;8.344;2024-02-21T02:08:42;95069.78;;;2.84;89.07
37972;BME280;23794;48.234;8.344;2024-02-21T02:11:09;95069.78;;;2.84;88.34
37972;BME280;23794;48.234;8.344;2024-02-21T02:13:37;95067.94;;;2.75;88.40
37972;BME280;23794;48.234;8.344;2024-02-21T02:16:04;95060.59;;;2.55;89.17
37972;BME280;23794;48.234;8.344;2024-02-21T02:18:31;95052.41;;;2.42;90.10
37972;BME280;23794;48.234;8.344;2024-02-21T02:20:58;95052.69;;;2.49;90.42
37972;BME280;23794;48.234;8.344;2024-02-21T02:23:31;95048.19;;;2.54;89.18
37972;BME280;23794;48.234;8.344;2024-02-21T02:25:58;95049.72;;;2.42;89.46
37972;BME280;23794;48.234;8.344;2024-02-21T02:28:25;95042.38;;;2.43;89.45
37972;BME280;23794;48.234;8.344;2024-02-21T02:30:52;95037.44;;;2.45;89.73
37972;BME280;23794;48.234;8.344;2024-02-21T02:33:19;95032.38;;;2.43;90.37
37972;BME280;23794;48.234;8.344;2024-02-21T02:35:46;95023.44;;;2.43;90.76
37972;BME280;23794;48.234;8.344;2024-02-21T02:38:13;95034.34;;;2.55;89.82
37972;BME280;23794;48.234;8.344;2024-02-21T02:40:40;95036.31;;;2.67;89.04
37972;BME280;23794;48.234;8.344;2024-02-21T02:43:08;95039.97;;;2.71;89.34
37972;BME280;23794;48.234;8.344;2024-02-21T02:45:35;95032.75;;;2.75;89.75
37972;BME280;23794;48.234;8.344;2024-02-21T02:48:02;95036.34;;;2.88;89.33
37972;BME280;23794;48.234;8.344;2024-02-21T02:50:29;95037.56;;;2.91;88.85
37972;BME280;23794;48.234;8.344;2024-02-21T02:52:56;95026.63;;;2.87;88.43
37972;BME280;23794;48.234;8.344;2024-02-21T02:55:23;95023.19;;;2.78;88.66
37972;BME280;23794;48.234;8.344;2024-02-21T02:57:49;95018.19;;;2.68;89.38
37972;BME280;23794;48.234;8.344;2024-02-21T03:00:16;95009.00;;;2.60;89.84
37972;BME280;23794;48.234;8.344;2024-02-21T03:02:45;95010.13;;;2.59;89.73
37972;BME280;23794;48.234;8.344;2024-02-21T03:05:17;95007.41;;;2.59;89.19
37972;BME280;23794;48.234;8.344;2024-02-21T03:07:46;94996.69;;;2.50;89.25
37972;BME280;23794;48.234;8.344;2024-02-21T03:10:13;94992.00;;;2.59;88.63
37972;BME280;23794;48.234;8.344;2024-02-21T03:12:40;94987.38;;;2.60;87.99
37972;BME280;23794;48.234;8.344;2024-02-21T03:15:07;94991.88;;;2.56;88.07
37972;BME280;23794;48.234;8.344;2024-02-21T03:17:34;94985.06;;;2.49;88.87
37972;BME280;23794;48.234;8.344;2024-02-21T03:20:02;94978.84;;;2.49;89.10
37972;BME280;23794;48.234;8.344;2024-02-21T03:22:32;94977.69;;;2.38;89.81
37972;BME280;23794;48.234;8.344;2024-02-21T03:25:01;94967.25;;;2.27;90.19
37972;BME280;23794;48.234;8.344;2024-02-21T03:27:28;94973.91;;;2.30;89.71
37972;BME280;23794;48.234;8.344;2024-02-21T03:29:56;94983.47;;;2.27;89.05
37972;BME280;23794;48.234;8.344;2024-02-21T03:32:23;94981.47;;;2.15;89.17
37972;BME280;23794;48.234;8.344;2024-02-21T03:34:50;94980.22;;;2.13;88.99
37972;BME280;23794;48.234;8.344;2024-02-21T03:37:17;94980.28;;;2.04;90.14
37972;BME280;23794;48.234;8.344;2024-02-21T03:39:44;94976.63;;;2.00;89.70
37972;BME280;23794;48.234;8.344;2024-02-21T03:42:10;94968.72;;;1.95;89.70
37972;BME280;23794;48.234;8.344;2024-02-21T03:44:37;94967.47;;;1.92;89.02
37972;BME280;23794;48.234;8.344;2024-02-21T03:47:04;94967.84;;;1.82;89.47
37972;BME280;23794;48.234;8.344;2024-02-21T03:49:30;94967.69;;;1.78;89.26
37972;BME280;23794;48.234;8.344;2024-02-21T03:51:57;94959.31;;;1.71;89.74
37972;BME280;23794;48.234;8.344;2024-02-21T03:54:24;94966.03;;;1.65;90.77
37972;BME280;23794;48.234;8.344;2024-02-21T03:56:50;94973.34;;;1.64;90.47
37972;BME280;23794;48.234;8.344;2024-02-21T03:59:17;94974.88;;;1.74;89.66
37972;BME280;23794;48.234;8.344;2024-02-21T04:01:43;94961.41;;;1.65;89.55
37972;BME280;23794;48.234;8.344;2024-02-21T04:04:10;94957.31;;;1.59;89.92
37972;BME280;23794;48.234;8.344;2024-02-21T04:06:46;94955.56;;;1.63;90.56
37972;BME280;23794;48.234;8.344;2024-02-21T04:09:13;94956.13;;;1.69;90.05
37972;BME280;23794;48.234;8.344;2024-02-21T04:11:40;94957.38;;;1.80;89.63
37972;BME280;23794;48.234;8.344;2024-02-21T04:14:07;94943.31;;;1.66;89.24
37972;BME280;23794;48.234;8.344;2024-02-21T04:16:34;94933.41;;;1.70;89.13
37972;BME280;23794;48.234;8.344;2024-02-21T04:19:01;94938.03;;;1.69;88.86
37972;BME280;23794;48.234;8.344;2024-02-21T04:21:28;94937.28;;;1.60;89.17
37972;BME280;23794;48.234;8.344;2024-02-21T04:23:55;94930.13;;;1.64;89.32
37972;BME280;23794;48.234;8.344;2024-02-21T04:26:22;94928.50;;;1.72;89.60
37972;BME280;23794;48.234;8.344;2024-02-21T04:28:48;94923.44;;;1.62;89.52
37972;BME280;23794;48.234;8.344;2024-02-21T04:31:15;94925.03;;;1.63;89.61
37972;BME280;23794;48.234;8.344;2024-02-21T04:33:42;94916.63;;;1.64;89.71
37972;BME280;23794;48.234;8.344;2024-02-21T04:36:09;94909.44;;;1.68;89.23
37972;BME280;23794;48.234;8.344;2024-02-21T04:38:36;94915.63;;;1.69;89.19
37972;BME280;23794;48.234;8.344;2024-02-21T04:41:02;94924.28;;;1.53;88.74
37972;BME280;23794;48.234;8.344;2024-02-21T04:43:29;94917.47;;;1.47;89.54
37972;BME280;23794;48.234;8.344;2024-02-21T04:45:55;94913.03;;;1.51;88.90
37972;BME280;23794;48.234;8.344;2024-02-21T04:48:24;94905.63;;;1.40;89.19
37972;BME280;23794;48.234;8.344;2024-02-21T04:50:51;94902.94;;;1.40;89.94
37972;BME280;23794;48.234;8.344;2024-02-21T04:53:18;94905.94;;;1.38;90.09
37972;BME280;23794;48.234;8.344;2024-02-21T04:55:45;94907.66;;;1.43;89.66
37972;BME280;23794;48.234;8.344;2024-02-21T04:58:11;94902.59;;;1.41;89.86
37972;BME280;23794;48.234;8.344;2024-02-21T05:00:38;94910.88;;;1.36;90.16
37972;BME280;23794;48.234;8.344;2024-02-21T05:03:05;94914.84;;;1.38;89.27
37972;BME280;23794;48.234;8.344;2024-02-21T05:05:32;94914.69;;;1.35;89.23
37972;BME280;23794;48.234;8.344;2024-02-21T05:07:58;94908.53;;;1.26;89.35
37972;BME280;23794;48.234;8.344;2024-02-21T05:10:25;94900.16;;;1.18;89.99
37972;BME280;23794;48.234;8.344;2024-02-21T05:12:52;94889.69;;;1.17;90.67
37972;BME280;23794;48.234;8.344;2024-02-21T05:15:19;94877.78;;;1.18;90.72
37972;BME280;23794;48.234;8.344;2024-02-21T05:17:45;94873.16;;;1.18;90.02
37972;BME280;23794;48.234;8.344;2024-02-21T05:20:12;94878.38;;;1.24;89.16
37972;BME280;23794;48.234;8.344;2024-02-21T05:22:39;94884.91;;;1.14;89.49
37972;BME280;23794;48.234;8.344;2024-02-21T05:25:06;94877.06;;;1.00;89.70
37972;BME280;23794;48.234;8.344;2024-02-21T05:27:33;94874.66;;;0.98;90.05
37972;BME280;23794;48.234;8.344;2024-02-21T05:29:59;94876.09;;;0.96;90.97
37972;BME280;23794;48.234;8.344;2024-02-21T05:32:26;94883.22;;;1.00;90.51
37972;BME280;23794;48.234;8.344;2024-02-21T05:34:53;94881.94;;;1.06;90.38
37972;BME280;23794;48.234;8.344;2024-02-21T05:37:20;94881.94;;;1.06;90.58
37972;BME280;23794;48.234;8.344;2024-02-21T05:39:46;94878.59;;;1.10;89.93
37972;BME280;23794;48.234;8.344;2024-02-21T05:42:13;94880.03;;;1.07;89.46
37972;BME280;23794;48.234;8.344;2024-02-21T05:44:40;94877.22;;;0.95;89.48
37972;BME280;23794;48.234;8.344;2024-02-21T05:47:07;94869.59;;;0.97;89.08
37972;BME280;23794;48.234;8.344;2024-02-21T05:49:36;94861.16;;;0.98;88.64
37972;BME280;23794;48.234;8.344;2024-02-21T05:52:04;94864.84;;;0.94;89.15
37972;BME280;23794;48.234;8.344;2024-02-21T05:54:32;94862.16;;;0.85;88.98
37972;BME280;23794;48.234;8.344;2024-02-21T05:56:59;94858.56;;;0.81;89.12
37972;BME280;23794;48.234;8.344;2024-02-21T05:59:25;94852.00;;;0.82;88.85
37972;BME280;23794;48.234;8.344;2024-02-21T06:01:58;94858.41;;;0.68;89.56
37972;BME280;23794;48.234;8.344;2024-02-21T06:04:25;94854.94;;;0.68;90.37
37972;BME280;23794;48.234;8.344;2024-02-21T06:06:51;94865.06;;;0.71;89.89
37972;BME280;23794;48.234;8.344;2024-02-21T06:09:18;94861.28;;;0.63;89.25
37972;BME280;23794;48.234;8.344;2024-02-21T06:11:45;94864.13;;;0.67;88.76
37972;BME280;23794;48.234;8.344;2024-02-21T06:14:13;94867.78;;;0.62;88.67
37972;BME280;23794;48.234;8.344;2024-02-21T06:16:39;94881.28;;;0.53;89.24
37972;BME280;23794;48.234;8.344;2024-02-21T06:19:06;94866.06;;;0.49;90.17
37972;BME280;23794;48.234;8.344;2024-02-21T06:21:36;94860.34;;;0.50;89.97
37972;BME280;23794;48.234;8.344;2024-02-21T06:24:03;94860.69;;;0.49;89.64
37972;BME280;23794;48.234;8.344;2024-02-21T06:26:30;94874.31;;;0.43;88.91
37972;BME280;23794;48.234;8.344;2024-02-21T06:28:57;94860.84;;;0.52;88.69
37972;BME280;23794;48.234;8.344;2024-02-21T06:31:27;94854.47;;;0.57;88.14
37972;BME280;23794;48.234;8.344;2024-02-21T06:33:54;94856.56;;;0.51;88.25
37972;BME280;23794;48.234;8.344;2024-02-21T06:36:21;94854.34;;;0.36;88.91
37972;BME280;23794;48.234;8.344;2024-02-21T06:38:48;94855.13;;;0.36;89.03
37972;BME280;23794;48.234;8.344;2024-02-21T06:41:18;94850.06;;;0.35;88.80
37972;BME280;23794;48.234;8.344;2024-02-21T06:43:46;94852.00;;;0.34;89.31
37972;BME280;23794;48.234;8.344;2024-02-21T06:46:33;94851.19;;;0.34;90.32
37972;BME280;23794;48.234;8.344;2024-02-21T06:49:01;94848.47;;;0.34;90.99
37972;BME280;23794;48.234;8.344;2024-02-21T06:51:28;94847.19;;;0.40;90.89
37972;BME280;23794;48.234;8.344;2024-02-21T06:53:55;94841.97;;;0.43;90.87
37972;BME280;23794;48.234;8.344;2024-02-21T06:56:25;94836.72;;;0.56;90.54
37972;BME280;23794;48.234;8.344;2024-02-21T06:58:56;94841.75;;;0.66;90.12
37972;BME280;23794;48.234;8.344;2024-02-21T07:01:23;94838.41;;;0.69;90.08
37972;BME280;23794;48.234;8.344;2024-02-21T07:03:50;94834.56;;;0.88;89.82
37972;BME280;23794;48.234;8.344;2024-02-21T07:06:17;94832.03;;;0.83;88.85
37972;BME280;23794;48.234;8.344;2024-02-21T07:08:44;94834.56;;;0.88;88.75
37972;BME280;23794;48.234;8.344;2024-02-21T07:11:13;94834.22;;;0.89;88.64
37972;BME280;23794;48.234;8.344;2024-02-21T07:13:40;94833.25;;;0.94;88.35
37972;BME280;23794;48.234;8.344;2024-02-21T07:16:07;94828.94;;;1.02;88.30
37972;BME280;23794;48.234;8.344;2024-02-21T07:18:34;94835.09;;;1.11;88.83
37972;BME280;23794;48.234;8.344;2024-02-21T07:21:01;94824.06;;;1.25;89.07
37972;BME280;23794;48.234;8.344;2024-02-21T07:23:27;94825.69;;;1.47;88.61
37972;BME280;23794;48.234;8.344;2024-02-21T07:25:54;94813.91;;;1.52;87.04
37972;BME280;23794;48.234;8.344;2024-02-21T07:28:21;94814.59;;;1.40;87.00
37972;BME280;23794;48.234;8.344;2024-02-21T07:30:47;94809.69;;;1.42;87.24
37972;BME280;23794;48.234;8.344;2024-02-21T07:33:14;94804.22;;;1.51;87.55
37972;BME280;23794;48.234;8.344;2024-02-21T07:35:41;94807.19;;;1.58;87.93
37972;BME280;23794;48.234;8.344;2024-02-21T07:38:11;94806.16;;;1.72;87.83
37972;BME280;23794;48.234;8.344;2024-02-21T07:40:40;94797.13;;;1.89;87.12
37972;BME280;23794;48.234;8.344;2024-02-21T07:43:07;94795.88;;;1.86;87.07
37972;BME280;23794;48.234;8.344;2024-02-21T07:45:33;94801.53;;;1.93;87.13
37972;BME280;23794;48.234;8.344;2024-02-21T07:48:00;94788.97;;;2.10;87.02
37972;BME280;23794;48.234;8.344;2024-02-21T07:50:26;94784.97;;;2.16;85.73
37972;BME280;23794;48.234;8.344;2024-02-21T07:52:53;94794.19;;;2.15;86.24
37972;BME280;23794;48.234;8.344;2024-02-21T07:55:20;94801.34;;;2.32;86.23
37972;BME280;23794;48.234;8.344;2024-02-21T07:57:47;94800.34;;;2.37;85.90
37972;BME280;23794;48.234;8.344;2024-02-21T08:00:14;94800.22;;;2.33;86.47
37972;BME280;23794;48.234;8.344;2024-02-21T08:02:48;94796.28;;;2.43;85.71
37972;BME280;23794;48.234;8.344;2024-02-21T08:05:14;94799.47;;;2.45;84.77
37972;BME280;23794;48.234;8.344;2024-02-21T08:07:41;94792.72;;;2.63;85.58
37972;BME280;23794;48.234;8.344;2024-02-21T08:10:08;94793.19;;;2.65;85.64
37972;BME280;23794;48.234;8.344;2024-02-21T08:12:35;94807.53;;;2.91;85.82
37972;BME280;23794;48.234;8.344;2024-02-21T08:15:02;94800.78;;;3.09;85.45
37972;BME280;23794;48.234;8.344;2024-02-21T08:17:31;94794.47;;;3.30;85.00
37972;BME280;23794;48.234;8.344;2024-02-21T08:19:58;94795.91;;;3.52;84.53
37972;BME280;23794;48.234;8.344;2024-02-21T08:22:25;94800.06;;;3.50;82.58
37972;BME280;23794;48.234;8.344;2024-02-21T08:24:53;94789.16;;;3.34;83.35
37972;BME280;23794;48.234;8.344;2024-02-21T08:27:20;94781.00;;;3.46;84.08
37972;BME280;23794;48.234;8.344;2024-02-21T08:29:47;94782.59;;;3.47;83.45
37972;BME280;23794;48.234;8.344;2024-02-21T08:32:13;94781.22;;;3.53;83.90
37972;BME280;23794;48.234;8.344;2024-02-21T08:34:40;94780.63;;;3.72;83.71
37972;BME280;23794;48.234;8.344;2024-02-21T08:37:06;94776.38;;;4.00;83.99
37972;BME280;23794;48.234;8.344;2024-02-21T08:39:34;94764.88;;;4.19;83.13
37972;BME280;23794;48.234;8.344;2024-02-21T08:42:00;94766.66;;;4.27;82.74
37972;BME280;23794;48.234;8.344;2024-02-21T08:44:28;94760.38;;;4.39;82.15
37972;BME280;23794;48.234;8.344;2024-02-21T08:46:55;94756.44;;;4.36;81.22
37972;BME280;23794;48.234;8.344;2024-02-21T08:49:22;94762.41;;;4.42;81.63
37972;BME280;23794;48.234;8.344;2024-02-21T08:51:50;94755.00;;;4.55;81.67
37972;BME280;23794;48.234;8.344;2024-02-21T08:54:16;94754.38;;;4.62;81.67
37972;BME280;23794;48.234;8.344;2024-02-21T08:56:43;94761.19;;;4.71;81.50
37972;BME280;23794;48.234;8.344;2024-02-21T08:59:10;94745.97;;;4.83;81.44
37972;BME280;23794;48.234;8.344;2024-02-21T09:01:37;94753.78;;;5.00;82.00
37972;BME280;23794;48.234;8.344;2024-02-21T09:04:04;94746.88;;;5.03;81.19
37972;BME280;23794;48.234;8.344;2024-02-21T09:06:31;94733.25;;;5.19;81.30
37972;BME280;23794;48.234;8.344;2024-02-21T09:09:00;94733.88;;;5.28;80.02
37972;BME280;23794;48.234;8.344;2024-02-21T09:11:27;94731.06;;;5.25;79.85
37972;BME280;23794;48.234;8.344;2024-02-21T09:13:54;94729.03;;;5.38;80.47
37972;BME280;23794;48.234;8.344;2024-02-21T09:16:21;94728.69;;;5.59;79.92
37972;BME280;23794;48.234;8.344;2024-02-21T09:18:49;94728.97;;;5.73;79.51
37972;BME280;23794;48.234;8.344;2024-02-21T09:21:16;94722.59;;;5.46;78.48
37972;BME280;23794;48.234;8.344;2024-02-21T09:23:43;94724.25;;;5.50;76.35
37972;BME280;23794;48.234;8.344;2024-02-21T09:26:10;94723.75;;;5.84;78.31
37972;BME280;23794;48.234;8.344;2024-02-21T09:28:40;94710.88;;;6.01;77.68
37972;BME280;23794;48.234;8.344;2024-02-21T09:31:07;94705.84;;;6.22;78.06
37972;BME280;23794;48.234;8.344;2024-02-21T09:33:34;94712.78;;;6.39;77.35
37972;BME280;23794;48.234;8.344;2024-02-21T09:36:01;94713.69;;;6.47;77.23
37972;BME280;23794;48.234;8.344;2024-02-21T09:38:27;94712.66;;;6.55;76.87
37972;BME280;23794;48.234;8.344;2024-02-21T09:40:59;94707.41;;;6.66;77.25
37972;BME280;23794;48.234;8.344;2024-02-21T09:43:27;94710.28;;;6.77;76.63
37972;BME280;23794;48.234;8.344;2024-02-21T09:45:55;94700.84;;;6.94;76.43
37972;BME280;23794;48.234;8.344;2024-02-21T09:51:10;94693.47;;;7.21;75.22
37972;BME280;23794;48.234;8.344;2024-02-21T09:53:40;94694.47;;;7.36;75.03
37972;BME280;23794;48.234;8.344;2024-02-21T09:56:14;94687.69;;;7.53;74.59
37972;BME280;23794;48.234;8.344;2024-02-21T09:58:41;94680.56;;;7.72;73.83
37972;BME280;23794;48.234;8.344;2024-02-21T10:01:07;94676.34;;;7.78;72.96
37972;BME280;23794;48.234;8.344;2024-02-21T10:03:51;94677.06;;;7.75;72.68
37972;BME280;23794;48.234;8.344;2024-02-21T10:06:17;94680.00;;;7.59;72.46
37972;BME280;23794;48.234;8.344;2024-02-21T10:08:51;94670.63;;;7.91;71.89
37972;BME280;23794;48.234;8.344;2024-02-21T10:11:25;94675.22;;;8.20;71.46
37972;BME280;23794;48.234;8.344;2024-02-21T10:14:05;94670.72;;;8.35;70.33
37972;BME280;23794;48.234;8.344;2024-02-21T10:16:33;94668.38;;;8.38;69.04
37972;BME280;23794;48.234;8.344;2024-02-21T10:19:00;94664.38;;;8.28;68.68
37972;BME280;23794;48.234;8.344;2024-02-21T10:21:27;94653.97;;;8.37;68.06
37972;BME280;23794;48.234;8.344;2024-02-21T10:23:54;94648.91;;;8.39;65.64
37972;BME280;23794;48.234;8.344;2024-02-21T10:26:21;94643.56;;;8.50;65.47
37972;BME280;23794;48.234;8.344;2024-02-21T10:28:48;94646.66;;;8.52;65.04
37972;BME280;23794;48.234;8.344;2024-02-21T10:31:25;94645.19;;;8.58;65.56
37972;BME280;23794;48.234;8.344;2024-02-21T10:33:54;94638.66;;;8.70;65.15
37972;BME280;23794;48.234;8.344;2024-02-21T10:36:21;94634.41;;;8.76;65.42
37972;BME280;23794;48.234;8.344;2024-02-21T10:38:48;94637.19;;;8.83;63.39
37972;BME280;23794;48.234;8.344;2024-02-21T10:41:15;94629.00;;;8.87;64.10
37972;BME280;23794;48.234;8.344;2024-02-21T10:43:49;94621.28;;;8.96;64.23
37972;BME280;23794;48.234;8.344;2024-02-21T10:46:18;94609.28;;;9.15;64.22
37972;BME280;23794;48.234;8.344;2024-02-21T10:48:46;94602.81;;;9.38;65.19
37972;BME280;23794;48.234;8.344;2024-02-21T10:51:20;94591.13;;;9.49;62.59
37972;BME280;23794;48.234;8.344;2024-02-21T10:56:28;94582.00;;;9.26;62.58
37972;BME280;23794;48.234;8.344;2024-02-21T10:59:00;94587.81;;;9.18;64.45
37972;BME280;23794;48.234;8.344;2024-02-21T11:01:30;94581.22;;;9.29;64.07
37972;BME280;23794;48.234;8.344;2024-02-21T11:04:06;94578.19;;;9.38;64.67
37972;BME280;23794;48.234;8.344;2024-02-21T11:06:38;94577.28;;;9.20;64.85
37972;BME280;23794;48.234;8.344;2024-02-21T11:11:35;94561.47;;;9.65;64.77
37972;BME280;23794;48.234;8.344;2024-02-21T11:14:18;94560.78;;;9.90;62.98
37972;BME280;23794;48.234;8.344;2024-02-21T11:16:46;94551.78;;;10.07;63.43
37972;BME280;23794;48.234;8.344;2024-02-21T11:19:20;94545.16;;;10.08;62.39
37972;BME280;23794;48.234;8.344;2024-02-21T11:21:48;94539.69;;;10.23;63.14
37972;BME280;23794;48.234;8.344;2024-02-21T11:24:32;94547.53;;;10.35;61.20
37972;BME280;23794;48.234;8.344;2024-02-21T11:27:11;94531.09;;;10.43;60.71
37972;BME280;23794;48.234;8.344;2024-02-21T11:29:48;94529.94;;;10.40;61.94
37972;BME280;23794;48.234;8.344;2024-02-21T11:32:19;94518.97;;;10.58;62.46
37972;BME280;23794;48.234;8.344;2024-02-21T11:34:57;94520.84;;;10.79;61.96
37972;BME280;23794;48.234;8.344;2024-02-21T11:37:35;94508.34;;;10.82;62.26
37972;BME280;23794;48.234;8.344;2024-02-21T11:40:05;94503.22;;;10.87;61.87
37972;BME280;23794;48.234;8.344;2024-02-21T11:42:36;94504.81;;;10.81;61.45
37972;BME280;23794;48.234;8.344;2024-02-21T11:45:03;94497.38;;;10.71;62.61
37972;BME280;23794;48.234;8.344;2024-02-21T11:47:30;94489.16;;;10.85;62.23
37972;BME280;23794;48.234;8.344;2024-02-21T11:49:57;94491.47;;;11.01;62.18
37972;BME280;23794;48.234;8.344;2024-02-21T11:52:25;94485.56;;;11.10;61.94
37972;BME280;23794;48.234;8.344;2024-02-21T11:54:53;94482.81;;;11.14;62.17
37972;BME280;23794;48.234;8.344;2024-02-21T11:57:21;94480.88;;;11.14;62.19
37972;BME280;23794;48.234;8.344;2024-02-21T11:59:48;94471.44;;;11.23;61.69
37972;BME280;23794;48.234;8.344;2024-02-21T12:02:16;94471.41;;;11.26;61.46
37972;BME280;23794;48.234;8.344;2024-02-21T12:04:43;94462.78;;;11.28;61.10
37972;BME280;23794;48.234;8.344;2024-02-21T12:07:11;94457.81;;;11.04;59.07
37972;BME280;23794;48.234;8.344;2024-02-21T12:09:38;94444.09;;;11.04;59.48
37972;BME280;23794;48.234;8.344;2024-02-21T12:12:07;94445.66;;;11.02;58.67
37972;BME280;23794;48.234;8.344;2024-02-21T12:14:35;94442.09;;;11.09;59.54
37972;BME280;23794;48.234;8.344;2024-02-21T12:17:02;94438.16;;;11.17;61.54
37972;BME280;23794;48.234;8.344;2024-02-21T12:19:33;94433.81;;;11.23;59.84
37972;BME280;23794;48.234;8.344;2024-02-21T12:22:01;94424.38;;;11.28;60.12
37972;BME280;23794;48.234;8.344;2024-02-21T12:24:32;94428.75;;;11.18;59.95
37972;BME280;23794;48.234;8.344;2024-02-21T12:26:58;94430.66;;;11.28;59.32
37972;BME280;23794;48.234;8.344;2024-02-21T12:29:26;94431.44;;;11.29;58.74
37972;BME280;23794;48.234;8.344;2024-02-21T12:31:54;94416.16;;;11.31;59.03
37972;BME280;23794;48.234;8.344;2024-02-21T12:34:22;94414.63;;;11.23;58.90
37972;BME280;23794;48.234;8.344;2024-02-21T12:37:04;94418.22;;;11.09;58.72
37972;BME280;23794;48.234;8.344;2024-02-21T12:39:30;94408.06;;;11.06;59.53
37972;BME280;23794;48.234;8.344;2024-02-21T12:41:59;94397.94;;;10.85;59.16
37972;BME280;23794;48.234;8.344;2024-02-21T12:44:25;94392.81;;;10.91;59.81
37972;BME280;23794;48.234;8.344;2024-02-21T12:46:53;94388.06;;;11.05;59.74
37972;BME280;23794;48.234;8.344;2024-02-21T12:49:21;94379.72;;;11.34;60.91
37972;BME280;23794;48.234;8.344;2024-02-21T12:51:48;94380.91;;;11.30;60.08
37972;BME280;23794;48.234;8.344;2024-02-21T12:54:15;94371.47;;;11.34;60.09
37972;BME280;23794;48.234;8.344;2024-02-21T12:56:42;94368.63;;;11.49;61.66
37972;BME280;23794;48.234;8.344;2024-02-21T12:59:09;94360.28;;;11.67;60.54
37972;BME280;23794;48.234;8.344;2024-02-21T13:01:36;94358.34;;;11.60;60.41
37972;BME280;23794;48.234;8.344;2024-02-21T13:04:04;94354.38;;;11.68;61.28
37972;BME280;23794;48.234;8.344;2024-02-21T13:06:31;94342.13;;;11.80;61.24
37972;BME280;23794;48.234;8.344;2024-02-21T13:08:58;94342.03;;;11.91;61.58
37972;BME280;23794;48.234;8.344;2024-02-21T13:11:26;94334.16;;;11.93;60.45
37972;BME280;23794;48.234;8.344;2024-02-21T13:13:55;94332.78;;;11.74;60.41
37972;BME280;23794;48.234;8.344;2024-02-21T13:16:21;94327.31;;;11.71;60.51
37972;BME280;23794;48.234;8.344;2024-02-21T13:18:49;94327.75;;;11.62;60.38
37972;BME280;23794;48.234;8.344;2024-02-21T13:21:16;94322.34;;;11.55;60.29